createdAt,value
2019-03-16T00:02:23.079Z,99.90
2019-03-16T00:04:51.124Z,99.90
2019-03-16T00:07:32.229Z,99.90
2019-03-16T00:09:47.195Z,99.90
2019-03-16T00:12:15.994Z,99.90
2019-03-16T00:14:44.795Z,99.90
2019-03-16T00:17:23.006Z,99.90
2019-03-16T00:19:41.608Z,99.90
2019-03-16T00:22:09.651Z,99.90
2019-03-16T00:24:37.688Z,99.90
2019-03-16T00:27:05.711Z,99.90
2019-03-16T00:29:33.742Z,99.90
2019-03-16T00:32:12.963Z,99.90
2019-03-16T00:34:30.587Z,99.90
2019-03-16T00:36:58.616Z,99.90
2019-03-16T00:39:26.660Z,99.90
2019-03-16T00:41:54.696Z,99.90
2019-03-16T00:44:22.740Z,99.90
2019-03-16T00:46:51.540Z,99.90
2019-03-16T00:49:20.342Z,99.90
2019-03-16T00:51:48.387Z,99.90
2019-03-16T00:54:16.398Z,99.90
2019-03-16T00:56:44.428Z,99.90
2019-03-16T00:59:13.219Z,99.90
2019-03-16T01:01:42.034Z,99.90
2019-03-16T01:04:10.073Z,99.90
2019-03-16T01:06:38.872Z,99.90
2019-03-16T01:09:06.918Z,99.90
2019-03-16T01:11:34.950Z,99.90
2019-03-16T01:14:02.985Z,99.90
2019-03-16T01:16:31.042Z,99.90
2019-03-16T01:18:59.835Z,99.90
2019-03-16T01:21:28.644Z,99.90
2019-03-16T01:23:56.680Z,99.90
2019-03-16T01:26:25.497Z,99.90
2019-03-16T01:28:53.545Z,99.90
2019-03-16T01:31:22.356Z,99.90
2019-03-16T01:33:51.124Z,99.90
2019-03-16T01:36:19.943Z,99.90
2019-03-16T01:38:47.980Z,99.90
2019-03-16T01:41:16.801Z,99.90
2019-03-16T01:43:44.806Z,99.90
2019-03-16T01:46:12.840Z,99.90
2019-03-16T01:48:40.885Z,99.90
2019-03-16T01:51:08.928Z,99.90
2019-03-16T01:53:36.962Z,99.90
2019-03-16T01:56:05.012Z,99.90
2019-03-16T01:58:33.034Z,99.90
2019-03-16T02:01:01.074Z,99.90
2019-03-16T02:03:29.117Z,99.90
2019-03-16T02:05:57.931Z,99.90
2019-03-16T02:08:25.972Z,99.90
2019-03-16T02:10:54.011Z,99.90
2019-03-16T02:13:22.811Z,99.90
2019-03-16T02:15:50.827Z,99.90
2019-03-16T02:18:18.856Z,99.90
2019-03-16T02:20:47.667Z,99.90
2019-03-16T02:23:15.700Z,99.90
2019-03-16T02:25:44.510Z,99.90
2019-03-16T02:28:12.539Z,99.90
2019-03-16T02:30:40.583Z,99.90
2019-03-16T02:33:13.311Z,99.90
2019-03-16T02:35:36.666Z,99.90
2019-03-16T02:38:05.474Z,99.90
2019-03-16T02:40:33.525Z,99.90
2019-03-16T02:43:02.335Z,99.90
2019-03-16T02:45:30.376Z,99.90
2019-03-16T02:47:59.299Z,99.90
2019-03-16T02:50:27.963Z,99.90
2019-03-16T02:52:56.771Z,99.90
2019-03-16T02:55:24.817Z,99.90
2019-03-16T02:57:53.629Z,99.90
2019-03-16T03:00:21.677Z,99.90
2019-03-16T03:02:50.474Z,99.90
2019-03-16T03:05:18.496Z,99.90
2019-03-16T03:07:46.532Z,99.90
2019-03-16T03:10:14.602Z,99.90
2019-03-16T03:12:43.370Z,99.90
2019-03-16T03:15:12.177Z,99.90
2019-03-16T03:17:40.216Z,99.90
2019-03-16T03:20:08.256Z,99.90
2019-03-16T03:22:36.262Z,99.90
2019-03-16T03:25:05.073Z,99.90
2019-03-16T03:27:33.100Z,99.90
2019-03-16T03:30:01.986Z,99.90
2019-03-16T03:32:30.712Z,99.90
2019-03-16T03:34:58.760Z,99.90
2019-03-16T03:37:27.559Z,99.90
2019-03-16T03:39:55.591Z,99.90
2019-03-16T03:42:23.642Z,99.90
2019-03-16T03:44:51.639Z,99.90
2019-03-16T03:47:19.690Z,99.90
2019-03-16T03:49:47.720Z,99.90
2019-03-16T03:52:15.759Z,99.90
2019-03-16T03:54:44.575Z,99.90
2019-03-16T03:57:13.361Z,99.90
2019-03-16T03:59:41.403Z,99.90
2019-03-16T04:02:09.404Z,99.90
2019-03-16T04:04:37.445Z,99.90
2019-03-16T04:07:06.248Z,99.90
2019-03-16T04:09:34.295Z,99.90
2019-03-16T04:12:02.335Z,99.90
2019-03-16T04:14:30.361Z,99.90
2019-03-16T04:16:58.397Z,99.90
2019-03-16T04:19:26.800Z,99.90
2019-03-16T04:21:55.611Z,99.90
2019-03-16T04:24:23.641Z,99.90
2019-03-16T04:26:52.471Z,99.90
2019-03-16T04:29:20.475Z,99.90
2019-03-16T04:31:48.495Z,99.90
2019-03-16T04:34:28.539Z,99.90
2019-03-16T04:36:44.551Z,99.90
2019-03-16T04:39:12.591Z,99.90
2019-03-16T04:41:41.399Z,99.90
2019-03-16T04:44:09.424Z,99.90
2019-03-16T04:46:37.463Z,99.90
2019-03-16T04:49:05.483Z,99.90
2019-03-16T04:51:34.291Z,99.90
2019-03-16T04:54:02.336Z,99.90
2019-03-16T04:56:31.145Z,99.90
2019-03-16T04:58:59.929Z,99.90
2019-03-16T05:01:27.980Z,99.90
2019-03-16T05:03:56.017Z,99.90
2019-03-16T05:06:24.033Z,99.90
2019-03-16T05:08:52.835Z,99.90
2019-03-16T05:11:20.880Z,99.90
2019-03-16T05:13:49.680Z,99.90
2019-03-16T05:16:18.488Z,99.90
2019-03-16T05:18:46.519Z,99.90
2019-03-16T05:21:15.326Z,99.90
2019-03-16T05:23:44.120Z,99.90
2019-03-16T05:26:12.173Z,99.90
2019-03-16T05:28:40.967Z,99.90
2019-03-16T05:31:09.773Z,99.90
2019-03-16T05:33:37.804Z,99.90
2019-03-16T05:36:05.839Z,99.90
2019-03-16T05:38:33.984Z,99.90
2019-03-16T05:41:02.015Z,99.90
2019-03-16T05:43:30.048Z,99.90
2019-03-16T05:45:58.101Z,99.90
2019-03-16T05:48:26.135Z,99.90
2019-03-16T05:50:57.271Z,99.90
2019-03-16T05:53:22.224Z,99.90
2019-03-16T05:55:50.259Z,99.90
2019-03-16T05:58:19.060Z,99.90
2019-03-16T06:00:47.084Z,99.90
2019-03-16T06:03:15.116Z,99.90
2019-03-16T06:05:43.159Z,99.90
2019-03-16T06:08:11.172Z,99.90
2019-03-16T06:10:39.241Z,99.90
2019-03-16T06:13:07.288Z,99.90
2019-03-16T06:15:35.348Z,99.90
2019-03-16T06:18:03.361Z,99.90
2019-03-16T06:20:31.395Z,99.90
2019-03-16T06:22:59.407Z,99.90
2019-03-16T06:25:27.441Z,99.90
2019-03-16T06:27:56.244Z,99.90
2019-03-16T06:30:24.303Z,99.90
2019-03-16T06:32:53.116Z,99.90
2019-03-16T06:35:24.924Z,99.90
2019-03-16T06:37:49.192Z,99.90
2019-03-16T06:40:17.226Z,99.90
2019-03-16T06:42:45.255Z,99.90
2019-03-16T06:45:13.283Z,99.90
2019-03-16T06:47:41.877Z,99.90
2019-03-16T06:50:11.318Z,99.90
2019-03-16T06:52:39.359Z,99.90
2019-03-16T06:55:07.367Z,99.90
2019-03-16T06:57:36.171Z,99.90
2019-03-16T07:00:05.884Z,99.90
2019-03-16T07:02:34.024Z,99.90
2019-03-16T07:05:02.067Z,99.90
2019-03-16T07:07:30.104Z,99.90
2019-03-16T07:09:58.135Z,99.90
2019-03-16T07:12:26.171Z,99.90
2019-03-16T07:14:54.200Z,99.90
2019-03-16T07:17:23.005Z,99.90
2019-03-16T07:19:51.036Z,99.90
2019-03-16T07:22:19.080Z,99.90
2019-03-16T07:24:47.080Z,99.90
2019-03-16T07:27:25.565Z,99.90
2019-03-16T07:29:43.899Z,99.90
2019-03-16T07:32:11.948Z,99.90
2019-03-16T07:34:40.059Z,99.90
2019-03-16T07:37:07.999Z,99.90
2019-03-16T07:39:36.036Z,99.90
2019-03-16T07:42:04.844Z,99.90
2019-03-16T07:44:32.885Z,99.90
2019-03-16T07:47:01.681Z,99.90
2019-03-16T07:49:30.484Z,99.90
2019-03-16T07:51:59.275Z,99.90
2019-03-16T07:54:27.336Z,99.90
2019-03-16T07:56:57.554Z,99.90
2019-03-16T07:59:26.042Z,99.90
2019-03-16T08:01:54.852Z,99.90
2019-03-16T08:04:22.898Z,99.90
2019-03-16T08:06:51.688Z,99.90
2019-03-16T08:09:19.900Z,99.90
2019-03-16T08:11:47.797Z,99.90
2019-03-16T08:14:16.611Z,99.90
2019-03-16T08:16:44.652Z,99.90
2019-03-16T08:19:12.676Z,99.90
2019-03-16T08:21:40.723Z,99.90
2019-03-16T08:24:08.765Z,99.90
2019-03-16T08:26:37.585Z,99.90
2019-03-16T08:29:05.621Z,99.90
2019-03-16T08:31:33.680Z,99.90
2019-03-16T08:34:01.755Z,99.90
2019-03-16T08:36:29.837Z,99.90
2019-03-16T08:38:58.670Z,99.90
2019-03-16T08:41:26.732Z,99.90
2019-03-16T08:43:54.784Z,99.90
2019-03-16T08:46:22.848Z,99.70
2019-03-16T08:48:51.678Z,99.30
2019-03-16T08:51:19.739Z,99.30
2019-03-16T08:53:47.800Z,98.90
2019-03-16T08:56:15.842Z,98.00
2019-03-16T08:58:45.137Z,97.50
2019-03-16T09:01:13.177Z,97.50
2019-03-16T09:03:43.891Z,96.50
2019-03-16T09:06:10.079Z,96.50
2019-03-16T09:08:38.112Z,96.50
2019-03-16T09:11:06.170Z,96.20
2019-03-16T09:13:34.207Z,96.10
2019-03-16T09:16:02.269Z,96.50
2019-03-16T09:18:30.326Z,96.10
2019-03-16T09:20:59.133Z,95.70
2019-03-16T09:23:27.205Z,95.60
2019-03-16T09:25:55.243Z,96.70
2019-03-16T09:28:25.295Z,94.20
2019-03-16T09:30:56.306Z,94.20
2019-03-16T09:33:21.535Z,94.30
2019-03-16T09:35:50.228Z,95.20
2019-03-16T09:38:18.371Z,95.20
2019-03-16T09:40:47.172Z,94.20
2019-03-16T09:43:15.215Z,94.20
2019-03-16T09:45:43.237Z,93.90
2019-03-16T09:48:11.283Z,93.70
2019-03-16T09:50:39.328Z,93.80
2019-03-16T09:53:08.148Z,92.90
2019-03-16T09:55:36.939Z,93.40
2019-03-16T09:58:04.997Z,93.40
2019-03-16T10:00:33.777Z,92.50
2019-03-16T10:03:01.840Z,92.50
2019-03-16T10:05:30.639Z,92.30
2019-03-16T10:07:58.687Z,92.20
2019-03-16T10:10:27.484Z,90.80
2019-03-16T10:12:55.504Z,90.90
2019-03-16T10:15:23.541Z,91.20
2019-03-16T10:17:52.332Z,91.00
2019-03-16T10:20:20.392Z,91.00
2019-03-16T10:22:48.438Z,87.70
2019-03-16T10:25:16.476Z,86.30
2019-03-16T10:27:44.530Z,87.30
2019-03-16T10:30:13.365Z,80.30
2019-03-16T10:32:41.409Z,77.40
2019-03-16T10:35:09.452Z,77.10
2019-03-16T10:37:37.500Z,77.10
2019-03-16T10:40:05.556Z,76.40
2019-03-16T10:42:34.368Z,81.80
2019-03-16T10:45:03.159Z,83.20
2019-03-16T10:47:31.212Z,82.80
2019-03-16T10:50:00.032Z,86.20
2019-03-16T10:52:28.088Z,86.20
2019-03-16T10:54:56.111Z,87.20
2019-03-16T10:57:24.182Z,84.10
2019-03-16T10:59:52.212Z,80.90
2019-03-16T11:02:20.268Z,84.50
2019-03-16T11:04:48.311Z,82.40
2019-03-16T11:07:17.120Z,85.10
2019-03-16T11:09:45.161Z,85.30
2019-03-16T11:12:13.974Z,83.50
2019-03-16T11:14:42.016Z,83.50
2019-03-16T11:17:10.068Z,83.30
2019-03-16T11:19:38.107Z,82.00
2019-03-16T11:22:06.132Z,82.30
2019-03-16T11:24:34.961Z,84.40
2019-03-16T11:27:02.999Z,85.00
2019-03-16T11:29:31.803Z,87.50
2019-03-16T11:31:59.849Z,87.40
2019-03-16T11:34:28.659Z,87.00
2019-03-16T11:36:56.702Z,86.90
2019-03-16T11:39:24.722Z,88.00
2019-03-16T11:41:52.765Z,89.90
2019-03-16T11:44:21.556Z,87.80
2019-03-16T11:46:49.620Z,87.80
2019-03-16T11:49:17.654Z,83.20
2019-03-16T11:51:45.685Z,83.70
2019-03-16T11:54:13.727Z,85.00
2019-03-16T11:56:42.520Z,79.80
2019-03-16T11:59:21.190Z,79.70
2019-03-16T12:01:44.690Z,78.60
2019-03-16T12:04:12.721Z,79.40
2019-03-16T12:06:40.752Z,80.40
2019-03-16T12:09:09.539Z,78.00
2019-03-16T12:11:37.589Z,78.00
2019-03-16T12:14:06.383Z,77.30
2019-03-16T12:16:34.419Z,77.30
2019-03-16T12:19:02.459Z,76.00
2019-03-16T12:21:30.502Z,76.90
2019-03-16T12:23:58.551Z,77.20
2019-03-16T12:26:27.332Z,75.60
2019-03-16T12:28:56.156Z,73.70
2019-03-16T12:31:24.186Z,73.80
2019-03-16T12:33:53.008Z,74.20
2019-03-16T12:36:21.028Z,74.20
2019-03-16T12:38:49.068Z,75.50
2019-03-16T12:41:17.112Z,75.40
2019-03-16T12:43:45.154Z,75.80
2019-03-16T12:46:13.962Z,77.00
2019-03-16T12:48:42.751Z,76.10
2019-03-16T12:51:10.787Z,76.10
2019-03-16T12:53:39.646Z,76.90
2019-03-16T12:56:06.882Z,75.50
2019-03-16T12:58:34.919Z,76.20
2019-03-16T13:01:02.974Z,75.30
2019-03-16T13:03:31.003Z,74.90
2019-03-16T13:05:59.043Z,73.50
2019-03-16T13:08:27.082Z,71.20
2019-03-16T13:10:55.883Z,68.50
2019-03-16T13:13:24.705Z,69.00
2019-03-16T13:15:52.730Z,69.00
2019-03-16T13:18:21.552Z,69.80
2019-03-16T13:20:49.586Z,70.50
2019-03-16T13:23:17.662Z,69.20
2019-03-16T13:25:45.640Z,69.00
2019-03-16T13:28:13.664Z,69.10
2019-03-16T13:30:41.702Z,67.00
2019-03-16T13:33:10.483Z,67.50
2019-03-16T13:35:38.527Z,67.40
2019-03-16T13:38:07.359Z,66.20
2019-03-16T13:40:35.367Z,66.00
2019-03-16T13:43:03.407Z,67.30
2019-03-16T13:45:31.443Z,67.10
2019-03-16T13:47:59.500Z,68.30
2019-03-16T13:50:28.303Z,69.70
2019-03-16T13:52:57.091Z,67.40
2019-03-16T13:55:25.891Z,64.50
2019-03-16T13:57:53.937Z,64.50
2019-03-16T14:00:23.352Z,67.30
2019-03-16T14:02:51.314Z,67.30
2019-03-16T14:05:19.358Z,64.00
2019-03-16T14:07:48.169Z,59.10
2019-03-16T14:10:17.103Z,59.10
2019-03-16T14:12:45.139Z,59.10
2019-03-16T14:15:13.183Z,58.90
2019-03-16T14:29:34.279Z,46.30
2019-03-16T14:32:02.319Z,46.30
2019-03-16T14:34:30.462Z,48.50
2019-03-16T14:36:58.491Z,49.20
2019-03-16T14:40:20.495Z,51.80
2019-03-16T14:42:48.476Z,45.70
2019-03-16T14:45:17.296Z,42.00
2019-03-16T14:47:45.326Z,41.90
2019-03-16T14:50:18.246Z,41.10
2019-03-16T14:53:44.372Z,45.90
2019-03-16T14:56:12.407Z,45.90
2019-03-16T14:58:40.465Z,48.00
2019-03-16T15:01:08.596Z,48.10
2019-03-16T15:03:36.659Z,50.30
2019-03-16T15:06:04.701Z,50.00
2019-03-16T15:08:32.807Z,51.10
2019-03-16T15:11:00.847Z,49.70
2019-03-16T15:13:28.879Z,51.10
2019-03-16T15:15:56.918Z,52.40
2019-03-16T15:18:24.961Z,51.30
2019-03-16T15:23:53.659Z,51.00
2019-03-16T15:26:21.759Z,52.00
2019-03-16T15:28:54.881Z,53.00
2019-03-16T15:31:17.904Z,52.20
2019-03-16T15:33:45.961Z,53.20
2019-03-16T15:36:14.735Z,53.10
2019-03-16T15:38:43.639Z,52.10
2019-03-16T15:41:11.725Z,52.10
2019-03-16T15:43:39.787Z,51.60
2019-03-16T15:46:07.837Z,54.10
2019-03-16T15:48:36.655Z,54.00
2019-03-16T15:51:04.702Z,54.00
2019-03-16T15:53:32.714Z,53.20
2019-03-16T15:56:00.772Z,53.40
2019-03-16T15:58:28.870Z,52.00
2019-03-16T16:01:03.467Z,51.50
2019-03-16T16:03:24.967Z,49.70
2019-03-16T16:05:53.772Z,46.80
2019-03-16T16:08:21.823Z,46.70
2019-03-16T16:11:00.522Z,47.70
2019-03-16T16:13:18.769Z,47.60
2019-03-16T16:15:47.583Z,45.50
2019-03-16T16:18:15.631Z,45.50
2019-03-16T16:20:43.867Z,44.70
2019-03-16T16:23:11.942Z,45.20
2019-03-16T16:25:40.084Z,44.10
2019-03-16T16:28:08.100Z,42.40
2019-03-16T16:30:36.149Z,42.90
2019-03-16T16:33:04.174Z,41.80
2019-03-16T16:35:33.018Z,43.00
2019-03-16T16:38:01.139Z,43.00
2019-03-16T16:40:29.202Z,42.90
2019-03-16T16:42:58.148Z,42.70
2019-03-16T16:45:26.191Z,42.70
2019-03-16T16:47:54.325Z,42.50
2019-03-16T16:50:22.378Z,42.40
2019-03-16T16:52:51.183Z,43.20
2019-03-16T16:55:19.230Z,43.20
2019-03-16T16:57:48.045Z,43.40
2019-03-16T17:00:16.839Z,43.20
2019-03-16T17:02:44.913Z,43.80
2019-03-16T17:05:12.991Z,43.70
2019-03-16T17:07:41.059Z,44.30
2019-03-16T17:10:10.915Z,44.20
2019-03-16T17:12:40.462Z,44.70
2019-03-16T17:15:08.539Z,44.70
2019-03-16T17:17:36.609Z,45.10
2019-03-16T17:20:04.672Z,44.90
2019-03-16T17:22:32.705Z,45.50
2019-03-16T17:25:00.815Z,45.40
2019-03-16T17:27:28.855Z,46.40
2019-03-16T17:29:56.875Z,46.90
2019-03-16T17:32:24.918Z,46.20
2019-03-16T17:34:53.703Z,46.80
2019-03-16T17:37:21.754Z,46.60
2019-03-16T17:39:50.644Z,47.10
2019-03-16T17:42:19.446Z,47.60
2019-03-16T17:44:50.903Z,48.60
2019-03-16T17:47:16.388Z,48.60
2019-03-16T17:49:45.207Z,48.80
2019-03-16T17:52:13.288Z,48.80
2019-03-16T17:54:41.363Z,49.20
2019-03-16T17:57:09.391Z,49.90
2019-03-16T17:59:38.223Z,50.70
2019-03-16T18:02:07.039Z,50.70
2019-03-16T18:04:35.162Z,51.20
2019-03-16T18:07:03.201Z,51.20
2019-03-16T18:09:31.315Z,51.60
2019-03-16T18:11:59.361Z,52.20
2019-03-16T18:14:28.273Z,52.30
2019-03-16T18:16:56.310Z,52.30
2019-03-16T18:19:25.135Z,52.00
2019-03-16T18:21:53.191Z,52.00
2019-03-16T18:24:21.312Z,53.20
2019-03-16T18:26:50.048Z,52.50
2019-03-16T18:29:18.835Z,52.90
2019-03-16T18:31:46.891Z,52.90
2019-03-16T18:34:16.511Z,52.80
2019-03-16T18:36:44.579Z,52.80
2019-03-16T18:39:12.669Z,52.40
2019-03-16T18:41:40.728Z,52.40
2019-03-16T18:44:08.771Z,52.80
2019-03-16T18:46:37.587Z,53.50
2019-03-16T18:49:05.631Z,53.50
2019-03-16T18:51:34.451Z,52.30
2019-03-16T18:54:02.495Z,52.30
2019-03-16T18:56:31.319Z,52.10
2019-03-16T18:58:59.357Z,52.20
2019-03-16T19:01:28.176Z,52.40
2019-03-16T19:03:56.232Z,52.40
2019-03-16T19:06:24.283Z,52.10
2019-03-16T19:08:53.192Z,52.20
2019-03-16T19:11:21.268Z,52.10
2019-03-16T19:13:49.303Z,52.00
2019-03-16T19:16:18.111Z,52.70
2019-03-16T19:18:46.142Z,52.70
2019-03-16T19:21:14.209Z,52.50
2019-03-16T19:23:42.329Z,53.20
2019-03-16T19:26:10.375Z,53.20
2019-03-16T19:28:38.395Z,53.20
2019-03-16T19:31:06.640Z,53.90
2019-03-16T19:33:34.687Z,53.80
2019-03-16T19:36:03.495Z,53.80
2019-03-16T19:38:31.589Z,53.80
2019-03-16T19:40:59.634Z,53.90
2019-03-16T19:43:27.672Z,53.70
2019-03-16T19:45:55.704Z,54.60
2019-03-16T19:48:23.750Z,54.50
2019-03-16T19:50:51.828Z,54.30
2019-03-16T19:53:19.863Z,54.60
2019-03-16T19:55:48.699Z,55.10
2019-03-16T19:58:16.753Z,55.10
2019-03-16T20:00:44.802Z,54.80
2019-03-16T20:03:13.268Z,54.60
2019-03-16T20:05:41.368Z,60.80
2019-03-16T20:08:09.407Z,55.10
2019-03-16T20:10:38.363Z,54.10
2019-03-16T20:13:06.276Z,54.00
2019-03-16T20:15:35.088Z,54.30
2019-03-16T20:18:03.133Z,54.30
2019-03-16T20:20:32.044Z,54.50
2019-03-16T20:23:01.656Z,54.20
2019-03-16T20:25:29.699Z,54.20
2019-03-16T20:27:58.514Z,53.80
2019-03-16T20:30:27.240Z,53.70
2019-03-16T20:33:03.881Z,53.30
2019-03-16T20:35:23.516Z,53.40
2019-03-16T20:37:52.323Z,53.40
2019-03-16T20:40:20.372Z,53.40
2019-03-16T20:42:49.185Z,53.10
2019-03-16T20:45:17.459Z,52.90
2019-03-16T20:47:46.035Z,52.90
2019-03-16T20:50:14.922Z,52.90
2019-03-16T20:52:42.979Z,52.80
2019-03-16T20:55:11.784Z,53.00
2019-03-16T20:57:39.878Z,52.90
2019-03-16T21:00:12.291Z,54.10
2019-03-16T21:02:40.345Z,55.60
2019-03-16T21:05:08.385Z,56.40
2019-03-16T21:07:37.168Z,58.60
2019-03-16T21:10:05.208Z,58.70
2019-03-16T21:12:33.219Z,61.00
2019-03-16T21:15:01.257Z,61.60
2019-03-16T21:17:30.079Z,63.10
2019-03-16T21:19:58.106Z,63.10
2019-03-16T21:22:34.927Z,63.70
2019-03-16T21:24:54.232Z,64.00
2019-03-16T21:27:22.439Z,64.10
2019-03-16T21:29:50.519Z,64.60
2019-03-16T21:32:18.560Z,64.80
2019-03-16T21:34:47.380Z,64.40
2019-03-16T21:37:15.434Z,64.50
2019-03-16T21:39:43.467Z,64.60
2019-03-16T21:42:11.496Z,64.40
2019-03-16T21:44:39.555Z,64.80
2019-03-16T21:47:07.627Z,65.30
2019-03-16T21:49:36.837Z,65.90
2019-03-16T21:52:04.887Z,65.90
2019-03-16T21:54:32.919Z,66.90
2019-03-16T21:57:01.006Z,67.10
2019-03-16T21:59:29.098Z,67.90
2019-03-16T22:01:57.158Z,68.10
2019-03-16T22:04:25.168Z,68.00
2019-03-16T22:06:53.223Z,67.90
2019-03-16T22:09:21.263Z,68.80
2019-03-16T22:11:49.355Z,69.80
2019-03-16T22:14:17.419Z,71.10
2019-03-16T22:16:45.476Z,71.90
2019-03-16T22:19:14.285Z,72.70
2019-03-16T22:21:42.324Z,72.70
2019-03-16T22:24:11.956Z,73.80
2019-03-16T22:26:40.008Z,73.80
2019-03-16T22:29:08.108Z,74.50
2019-03-16T22:31:36.223Z,74.00
2019-03-16T22:34:04.340Z,74.20
2019-03-16T22:36:33.110Z,75.00
2019-03-16T22:39:02.014Z,75.90
2019-03-16T22:41:30.798Z,76.40
2019-03-16T22:43:58.878Z,76.40
2019-03-16T22:46:27.643Z,78.00
2019-03-16T22:48:56.463Z,78.10
2019-03-16T22:51:24.488Z,78.10
2019-03-16T22:53:53.411Z,79.20
2019-03-16T22:56:22.179Z,77.40
2019-03-16T22:58:51.098Z,78.00
2019-03-16T23:01:19.270Z,77.90
2019-03-16T23:03:47.312Z,76.80
2019-03-16T23:06:16.116Z,75.80
2019-03-16T23:08:44.159Z,75.80
2019-03-16T23:11:12.962Z,75.60
2019-03-16T23:13:41.863Z,75.30
2019-03-16T23:16:09.947Z,75.30
2019-03-16T23:18:38.816Z,74.60
2019-03-16T23:21:06.895Z,74.60
2019-03-16T23:23:34.946Z,74.20
2019-03-16T23:26:03.742Z,74.10
2019-03-16T23:28:31.867Z,74.10
2019-03-16T23:30:59.824Z,73.60
2019-03-16T23:33:27.962Z,73.90
2019-03-16T23:35:56.035Z,73.50
2019-03-16T23:38:24.820Z,73.30
2019-03-16T23:40:52.859Z,73.30
2019-03-16T23:43:20.963Z,73.60
2019-03-16T23:45:49.000Z,73.50
2019-03-16T23:48:17.103Z,73.70
2019-03-16T23:50:45.154Z,73.60
2019-03-16T23:53:13.197Z,73.10
2019-03-16T23:55:41.231Z,73.20
2019-03-16T23:58:09.257Z,73.50
